sensor_id;sensor_type;location;lat;lon;timestamp;pressure;altitude;pressure_sealevel;temperature;humidity
68193;BME280;55012;47.562;18.414;2023-01-24T00:00:34;99765.28;;;2.73;100.00
68193;BME280;55012;47.562;18.414;2023-01-24T00:03:00;99771.19;;;2.75;100.00
68193;BME280;55012;47.562;18.414;2023-01-24T00:05:25;99773.59;;;2.71;100.00
68193;BME280;55012;47.562;18.414;2023-01-24T00:07:51;99775.25;;;2.67;100.00
68193;BME280;55012;47.562;18.414;2023-01-24T00:10:16;99777.13;;;2.67;100.00
68193;BME280;55012;47.562;18.414;2023-01-24T00:12:42;99781.66;;;2.66;100.00
68193;BME280;55012;47.562;18.414;2023-01-24T00:15:08;99785.13;;;2.67;100.00
68193;BME280;55012;47.562;18.414;2023-01-24T00:17:34;99773.66;;;2.66;100.00
68193;BME280;55012;47.562;18.414;2023-01-24T00:19:59;99781.69;;;2.61;100.00
68193;BME280;55012;47.562;18.414;2023-01-24T00:22:25;99782.25;;;2.58;100.00
68193;BME280;55012;47.562;18.414;2023-01-24T00:24:50;99784.94;;;2.53;100.00
68193;BME280;55012;47.562;18.414;2023-01-24T00:27:16;99786.06;;;2.47;100.00
68193;BME280;55012;47.562;18.414;2023-01-24T00:29:42;99789.66;;;2.32;100.00
68193;BME280;55012;47.562;18.414;2023-01-24T00:32:08;99790.47;;;2.22;100.00
68193;BME280;55012;47.562;18.414;2023-01-24T00:34:34;99792.63;;;2.20;100.00
68193;BME280;55012;47.562;18.414;2023-01-24T00:37:00;99810.25;;;2.21;100.00
68193;BME280;55012;47.562;18.414;2023-01-24T00:39:25;99805.19;;;2.15;100.00
68193;BME280;55012;47.562;18.414;2023-01-24T00:41:51;99801.25;;;2.07;100.00
68193;BME280;55012;47.562;18.414;2023-01-24T00:44:16;99806.59;;;2.02;100.00
68193;BME280;55012;47.562;18.414;2023-01-24T00:46:41;99805.81;;;1.96;100.00
68193;BME280;55012;47.562;18.414;2023-01-24T00:49:07;99808.81;;;1.85;100.00
68193;BME280;55012;47.562;18.414;2023-01-24T00:51:33;99815.50;;;1.82;100.00
68193;BME280;55012;47.562;18.414;2023-01-24T00:53:59;99818.47;;;1.76;100.00
68193;BME280;55012;47.562;18.414;2023-01-24T00:56:24;99824.59;;;1.76;100.00
68193;BME280;55012;47.562;18.414;2023-01-24T00:58:50;99833.16;;;1.68;100.00
68193;BME280;55012;47.562;18.414;2023-01-24T01:01:15;99833.66;;;1.70;100.00
68193;BME280;55012;47.562;18.414;2023-01-24T01:03:41;99832.88;;;1.75;100.00
68193;BME280;55012;47.562;18.414;2023-01-24T01:06:11;99834.47;;;1.76;100.00
68193;BME280;55012;47.562;18.414;2023-01-24T01:08:37;99831.25;;;1.79;100.00
68193;BME280;55012;47.562;18.414;2023-01-24T01:11:03;99831.78;;;1.76;100.00
68193;BME280;55012;47.562;18.414;2023-01-24T01:13:29;99840.59;;;1.76;100.00
68193;BME280;55012;47.562;18.414;2023-01-24T01:16:07;99836.56;;;1.79;100.00
68193;BME280;55012;47.562;18.414;2023-01-24T01:18:34;99839.75;;;1.86;100.00
68193;BME280;55012;47.562;18.414;2023-01-24T01:21:00;99844.53;;;1.89;100.00
68193;BME280;55012;47.562;18.414;2023-01-24T01:23:25;99843.22;;;1.91;100.00
68193;BME280;55012;47.562;18.414;2023-01-24T01:25:51;99852.53;;;1.94;100.00
68193;BME280;55012;47.562;18.414;2023-01-24T01:28:16;99846.69;;;1.92;100.00
68193;BME280;55012;47.562;18.414;2023-01-24T01:30:42;99849.88;;;1.94;100.00
68193;BME280;55012;47.562;18.414;2023-01-24T01:33:07;99853.34;;;1.94;100.00
68193;BME280;55012;47.562;18.414;2023-01-24T01:35:33;99860.78;;;1.97;100.00
68193;BME280;55012;47.562;18.414;2023-01-24T01:37:58;99854.13;;;2.00;100.00
68193;BME280;55012;47.562;18.414;2023-01-24T01:40:24;99856.22;;;2.03;100.00
68193;BME280;55012;47.562;18.414;2023-01-24T01:42:50;99860.22;;;2.06;100.00
68193;BME280;55012;47.562;18.414;2023-01-24T01:48:04;99861.28;;;2.10;100.00
68193;BME280;55012;47.562;18.414;2023-01-24T01:50:39;99864.19;;;2.13;100.00
68193;BME280;55012;47.562;18.414;2023-01-24T01:53:06;99871.41;;;2.18;100.00
68193;BME280;55012;47.562;18.414;2023-01-24T01:55:33;99864.41;;;2.22;100.00
68193;BME280;55012;47.562;18.414;2023-01-24T01:58:02;99870.03;;;2.25;100.00
68193;BME280;55012;47.562;18.414;2023-01-24T02:00:28;99869.97;;;2.31;100.00
68193;BME280;55012;47.562;18.414;2023-01-24T02:03:04;99872.34;;;2.37;100.00
68193;BME280;55012;47.562;18.414;2023-01-24T02:05:50;99871.28;;;2.43;100.00
68193;BME280;55012;47.562;18.414;2023-01-24T02:08:21;99875.75;;;2.48;100.00
68193;BME280;55012;47.562;18.414;2023-01-24T02:10:48;99869.63;;;2.52;100.00
68193;BME280;55012;47.562;18.414;2023-01-24T02:13:36;99877.84;;;2.56;100.00
68193;BME280;55012;47.562;18.414;2023-01-24T02:16:05;99877.84;;;2.61;100.00
68193;BME280;55012;47.562;18.414;2023-01-24T02:18:36;99878.91;;;2.65;100.00
68193;BME280;55012;47.562;18.414;2023-01-24T02:21:06;99881.53;;;2.70;100.00
68193;BME280;55012;47.562;18.414;2023-01-24T02:28:37;99891.31;;;2.85;100.00
68193;BME280;55012;47.562;18.414;2023-01-24T02:31:04;99890.75;;;2.88;100.00
68193;BME280;55012;47.562;18.414;2023-01-24T02:33:31;99893.19;;;2.90;100.00
68193;BME280;55012;47.562;18.414;2023-01-24T02:36:26;99893.69;;;2.92;100.00
68193;BME280;55012;47.562;18.414;2023-01-24T02:39:00;99889.13;;;2.92;100.00
68193;BME280;55012;47.562;18.414;2023-01-24T02:41:38;99885.38;;;2.93;100.00
68193;BME280;55012;47.562;18.414;2023-01-24T02:44:10;99892.09;;;2.91;100.00
68193;BME280;55012;47.562;18.414;2023-01-24T02:46:37;99894.00;;;2.85;100.00
68193;BME280;55012;47.562;18.414;2023-01-24T02:49:07;99896.94;;;2.84;100.00
68193;BME280;55012;47.562;18.414;2023-01-24T02:51:33;99894.28;;;2.84;100.00
68193;BME280;55012;47.562;18.414;2023-01-24T02:54:17;99889.72;;;2.84;100.00
68193;BME280;55012;47.562;18.414;2023-01-24T02:56:42;99901.22;;;2.85;100.00
68193;BME280;55012;47.562;18.414;2023-01-24T02:59:26;99902.00;;;2.85;100.00
68193;BME280;55012;47.562;18.414;2023-01-24T03:01:52;99900.94;;;2.86;100.00
68193;BME280;55012;47.562;18.414;2023-01-24T03:04:17;99904.91;;;2.89;100.00
68193;BME280;55012;47.562;18.414;2023-01-24T03:06:43;99907.88;;;2.87;100.00
68193;BME280;55012;47.562;18.414;2023-01-24T03:09:08;99905.72;;;2.89;100.00
68193;BME280;55012;47.562;18.414;2023-01-24T03:12:00;99906.25;;;2.91;100.00
68193;BME280;55012;47.562;18.414;2023-01-24T03:14:45;99897.66;;;2.94;100.00
68193;BME280;55012;47.562;18.414;2023-01-24T03:17:29;99901.94;;;2.95;100.00
68193;BME280;55012;47.562;18.414;2023-01-24T03:20:13;99900.34;;;2.94;100.00
68193;BME280;55012;47.562;18.414;2023-01-24T03:22:56;99904.09;;;2.93;100.00
68193;BME280;55012;47.562;18.414;2023-01-24T03:25:40;99904.38;;;2.92;100.00
68193;BME280;55012;47.562;18.414;2023-01-24T03:28:24;99910.25;;;2.89;100.00
68193;BME280;55012;47.562;18.414;2023-01-24T03:31:08;99911.34;;;2.88;100.00
68193;BME280;55012;47.562;18.414;2023-01-24T03:33:52;99912.13;;;2.88;100.00
68193;BME280;55012;47.562;18.414;2023-01-24T03:36:36;99908.66;;;2.88;100.00
68193;BME280;55012;47.562;18.414;2023-01-24T03:39:02;99914.28;;;2.86;100.00
68193;BME280;55012;47.562;18.414;2023-01-24T03:41:46;99911.09;;;2.84;100.00
68193;BME280;55012;47.562;18.414;2023-01-24T03:44:11;99920.72;;;2.85;100.00
68193;BME280;55012;47.562;18.414;2023-01-24T03:46:37;99918.06;;;2.80;100.00
68193;BME280;55012;47.562;18.414;2023-01-24T03:49:06;99920.78;;;2.75;100.00
68193;BME280;55012;47.562;18.414;2023-01-24T03:51:31;99916.78;;;2.72;100.00
68193;BME280;55012;47.562;18.414;2023-01-24T03:54:15;99916.03;;;2.67;100.00
68193;BME280;55012;47.562;18.414;2023-01-24T03:56:41;99919.78;;;2.61;100.00
68193;BME280;55012;47.562;18.414;2023-01-24T03:59:06;99924.88;;;2.57;100.00
68193;BME280;55012;47.562;18.414;2023-01-24T04:01:31;99919.84;;;2.50;100.00
68193;BME280;55012;47.562;18.414;2023-01-24T04:03:57;99920.66;;;2.46;100.00
68193;BME280;55012;47.562;18.414;2023-01-24T04:06:23;99917.19;;;2.45;100.00
68193;BME280;55012;47.562;18.414;2023-01-24T04:08:48;99915.88;;;2.43;100.00
68193;BME280;55012;47.562;18.414;2023-01-24T04:11:14;99920.69;;;2.41;100.00
68193;BME280;55012;47.562;18.414;2023-01-24T04:13:40;99919.06;;;2.40;100.00
68193;BME280;55012;47.562;18.414;2023-01-24T04:16:07;99908.38;;;2.40;100.00
68193;BME280;55012;47.562;18.414;2023-01-24T04:18:32;99916.94;;;2.42;100.00
68193;BME280;55012;47.562;18.414;2023-01-24T04:21:01;99918.25;;;2.44;100.00
68193;BME280;55012;47.562;18.414;2023-01-24T04:23:27;99922.00;;;2.43;100.00
68193;BME280;55012;47.562;18.414;2023-01-24T04:25:52;99922.00;;;2.43;100.00
68193;BME280;55012;47.562;18.414;2023-01-24T04:28:22;99919.88;;;2.40;100.00
68193;BME280;55012;47.562;18.414;2023-01-24T04:30:47;99922.81;;;2.39;100.00
68193;BME280;55012;47.562;18.414;2023-01-24T04:33:13;99922.81;;;2.39;100.00
68193;BME280;55012;47.562;18.414;2023-01-24T04:35:38;99923.38;;;2.36;100.00
68193;BME280;55012;47.562;18.414;2023-01-24T04:38:04;99926.59;;;2.33;100.00
68193;BME280;55012;47.562;18.414;2023-01-24T04:40:30;99924.19;;;2.31;100.00
68193;BME280;55012;47.562;18.414;2023-01-24T04:42:56;99923.38;;;2.31;100.00
68193;BME280;55012;47.562;18.414;2023-01-24T04:45:22;99933.81;;;2.27;100.00
68193;BME280;55012;47.562;18.414;2023-01-24T04:47:47;99936.50;;;2.22;100.00
68193;BME280;55012;47.562;18.414;2023-01-24T04:50:13;99932.00;;;2.17;100.00
68193;BME280;55012;47.562;18.414;2023-01-24T04:52:38;99941.59;;;2.13;100.00
68193;BME280;55012;47.562;18.414;2023-01-24T04:55:04;99937.31;;;2.12;100.00
68193;BME280;55012;47.562;18.414;2023-01-24T04:57:30;99943.97;;;2.15;100.00
68193;BME280;55012;47.562;18.414;2023-01-24T04:59:55;99939.19;;;2.17;100.00
68193;BME280;55012;47.562;18.414;2023-01-24T05:02:21;99942.66;;;2.17;100.00
68193;BME280;55012;47.562;18.414;2023-01-24T05:04:46;99946.13;;;2.13;100.00
68193;BME280;55012;47.562;18.414;2023-01-24T05:07:12;99946.13;;;2.13;100.00
68193;BME280;55012;47.562;18.414;2023-01-24T05:09:38;99946.41;;;2.11;100.00
68193;BME280;55012;47.562;18.414;2023-01-24T05:12:04;99942.94;;;2.11;100.00
68193;BME280;55012;47.562;18.414;2023-01-24T05:14:29;99947.72;;;2.14;100.00
68193;BME280;55012;47.562;18.414;2023-01-24T05:16:55;99951.72;;;2.21;100.00
68193;BME280;55012;47.562;18.414;2023-01-24T05:19:20;99957.84;;;2.27;100.00
68193;BME280;55012;47.562;18.414;2023-01-24T05:21:45;99954.63;;;2.30;100.00
68193;BME280;55012;47.562;18.414;2023-01-24T05:24:11;99954.63;;;2.30;100.00
68193;BME280;55012;47.562;18.414;2023-01-24T05:26:36;99961.81;;;2.30;100.00
68193;BME280;55012;47.562;18.414;2023-01-24T05:29:02;99964.78;;;2.28;100.00
68193;BME280;55012;47.562;18.414;2023-01-24T05:31:27;99970.13;;;2.28;100.00
68193;BME280;55012;47.562;18.414;2023-01-24T05:33:53;99966.13;;;2.25;100.00
68193;BME280;55012;47.562;18.414;2023-01-24T05:36:21;99976.81;;;2.25;100.00
68193;BME280;55012;47.562;18.414;2023-01-24T05:38:47;99979.75;;;2.24;100.00
68193;BME280;55012;47.562;18.414;2023-01-24T05:41:16;99988.28;;;2.21;100.00
68193;BME280;55012;47.562;18.414;2023-01-24T05:43:42;99986.16;;;2.18;100.00
68193;BME280;55012;47.562;18.414;2023-01-24T05:46:11;99989.13;;;2.16;100.00
68193;BME280;55012;47.562;18.414;2023-01-24T05:48:37;99988.03;;;2.12;100.00
68193;BME280;55012;47.562;18.414;2023-01-24T05:51:05;99992.56;;;2.12;100.00
68193;BME280;55012;47.562;18.414;2023-01-24T05:53:32;99993.91;;;2.14;100.00
68193;BME280;55012;47.562;18.414;2023-01-24T05:56:02;99995.53;;;2.15;100.00
68193;BME280;55012;47.562;18.414;2023-01-24T05:58:29;99997.91;;;2.17;100.00
68193;BME280;55012;47.562;18.414;2023-01-24T06:00:55;100000.59;;;2.17;100.00
68193;BME280;55012;47.562;18.414;2023-01-24T06:03:21;99998.72;;;2.12;100.00
68193;BME280;55012;47.562;18.414;2023-01-24T06:05:56;99997.91;;;2.17;100.00
68193;BME280;55012;47.562;18.414;2023-01-24T06:08:21;100008.31;;;2.13;100.00
68193;BME280;55012;47.562;18.414;2023-01-24T06:10:47;100005.13;;;2.11;100.00
68193;BME280;55012;47.562;18.414;2023-01-24T06:13:13;100011.53;;;2.05;100.00
68193;BME280;55012;47.562;18.414;2023-01-24T06:15:39;100009.13;;;1.98;100.00
68193;BME280;55012;47.562;18.414;2023-01-24T06:18:05;100016.38;;;1.93;100.00
68193;BME280;55012;47.562;18.414;2023-01-24T06:20:32;100021.41;;;1.89;100.00
68193;BME280;55012;47.562;18.414;2023-01-24T06:23:06;100019.03;;;1.83;100.00
68193;BME280;55012;47.562;18.414;2023-01-24T06:25:33;100024.13;;;1.74;100.00
68193;BME280;55012;47.562;18.414;2023-01-24T06:27:59;100026.78;;;1.69;100.00
68193;BME280;55012;47.562;18.414;2023-01-24T06:30:25;100029.72;;;1.67;100.00
68193;BME280;55012;47.562;18.414;2023-01-24T06:38:18;100040.66;;;1.76;100.00
68193;BME280;55012;47.562;18.414;2023-01-24T06:40:45;100038.50;;;1.83;100.00
68193;BME280;55012;47.562;18.414;2023-01-24T06:43:10;100037.97;;;1.86;100.00
68193;BME280;55012;47.562;18.414;2023-01-24T06:45:36;100043.84;;;1.93;100.00
68193;BME280;55012;47.562;18.414;2023-01-24T06:48:01;100045.44;;;2.00;100.00
68193;BME280;55012;47.562;18.414;2023-01-24T06:50:27;100051.31;;;1.96;100.00
68193;BME280;55012;47.562;18.414;2023-01-24T06:52:56;100056.38;;;1.98;100.00
68193;BME280;55012;47.562;18.414;2023-01-24T06:55:22;100059.06;;;1.93;100.00
68193;BME280;55012;47.562;18.414;2023-01-24T06:57:58;100056.09;;;1.89;100.00
68193;BME280;55012;47.562;18.414;2023-01-24T07:00:24;100057.97;;;1.89;100.00
68193;BME280;55012;47.562;18.414;2023-01-24T07:03:02;100055.56;;;1.87;100.00
68193;BME280;55012;47.562;18.414;2023-01-24T07:05:31;100057.44;;;1.82;100.00
68193;BME280;55012;47.562;18.414;2023-01-24T07:07:57;100059.03;;;1.73;100.00
68193;BME280;55012;47.562;18.414;2023-01-24T07:10:22;100057.44;;;1.66;100.00
68193;BME280;55012;47.562;18.414;2023-01-24T07:12:48;100065.97;;;1.63;100.00
68193;BME280;55012;47.562;18.414;2023-01-24T07:15:13;100069.44;;;1.64;100.00
68193;BME280;55012;47.562;18.414;2023-01-24T07:17:39;100067.56;;;1.69;100.00
68193;BME280;55012;47.562;18.414;2023-01-24T07:20:05;100065.44;;;1.82;100.00
68193;BME280;55012;47.562;18.414;2023-01-24T07:22:32;100068.91;;;1.97;100.00
68193;BME280;55012;47.562;18.414;2023-01-24T07:24:57;100063.56;;;2.13;100.00
68193;BME280;55012;47.562;18.414;2023-01-24T07:27:23;100075.31;;;2.27;100.00
68193;BME280;55012;47.562;18.414;2023-01-24T07:29:49;100073.13;;;2.39;100.00
68193;BME280;55012;47.562;18.414;2023-01-24T07:32:14;100074.75;;;2.50;100.00
68193;BME280;55012;47.562;18.414;2023-01-24T07:34:40;100086.19;;;2.61;100.00
68193;BME280;55012;47.562;18.414;2023-01-24T07:37:06;100091.78;;;2.70;100.00
68193;BME280;55012;47.562;18.414;2023-01-24T07:39:32;100095.19;;;2.86;100.00
68193;BME280;55012;47.562;18.414;2023-01-24T07:41:58;100103.44;;;2.99;100.00
68193;BME280;55012;47.562;18.414;2023-01-24T07:44:23;100096.22;;;3.00;100.00
68193;BME280;55012;47.562;18.414;2023-01-24T07:46:49;100113.59;;;3.02;100.00
68193;BME280;55012;47.562;18.414;2023-01-24T07:49:14;100117.84;;;3.03;100.00
68193;BME280;55012;47.562;18.414;2023-01-24T07:51:40;100112.53;;;2.98;100.00
68193;BME280;55012;47.562;18.414;2023-01-24T07:54:05;100117.09;;;2.88;100.00
68193;BME280;55012;47.562;18.414;2023-01-24T07:56:31;100111.00;;;2.82;100.00
68193;BME280;55012;47.562;18.414;2023-01-24T07:58:57;100106.72;;;2.76;100.00
68193;BME280;55012;47.562;18.414;2023-01-24T08:01:23;100111.53;;;2.69;100.00
68193;BME280;55012;47.562;18.414;2023-01-24T08:03:49;100116.88;;;2.69;100.00
68193;BME280;55012;47.562;18.414;2023-01-24T08:06:15;100120.31;;;2.85;100.00
68193;BME280;55012;47.562;18.414;2023-01-24T08:08:40;100117.63;;;2.95;100.00
68193;BME280;55012;47.562;18.414;2023-01-24T08:11:06;100119.72;;;3.08;100.00
68193;BME280;55012;47.562;18.414;2023-01-24T08:13:32;100131.69;;;3.26;100.00
68193;BME280;55012;47.562;18.414;2023-01-24T08:15:59;100124.09;;;3.48;100.00
68193;BME280;55012;47.562;18.414;2023-01-24T08:18:25;100119.69;;;3.67;100.00
68193;BME280;55012;47.562;18.414;2023-01-24T08:20:54;100124.09;;;3.87;100.00
68193;BME280;55012;47.562;18.414;2023-01-24T08:23:20;100128.94;;;3.85;100.00
68193;BME280;55012;47.562;18.414;2023-01-24T08:25:45;100126.03;;;3.82;100.00
68193;BME280;55012;47.562;18.414;2023-01-24T08:28:11;100135.22;;;3.65;100.00
68193;BME280;55012;47.562;18.414;2023-01-24T08:30:36;100139.81;;;3.55;100.00
68193;BME280;55012;47.562;18.414;2023-01-24T08:33:04;100146.06;;;3.40;100.00
68193;BME280;55012;47.562;18.414;2023-01-24T08:35:30;100139.97;;;3.24;100.00
68193;BME280;55012;47.562;18.414;2023-01-24T08:37:56;100144.28;;;3.15;100.00
68193;BME280;55012;47.562;18.414;2023-01-24T08:40:22;100143.50;;;3.09;100.00
68193;BME280;55012;47.562;18.414;2023-01-24T08:42:47;100146.44;;;3.08;100.00
68193;BME280;55012;47.562;18.414;2023-01-24T08:45:13;100142.75;;;2.99;100.00
68193;BME280;55012;47.562;18.414;2023-01-24T08:47:38;100136.63;;;2.83;100.00
68193;BME280;55012;47.562;18.414;2023-01-24T08:50:04;100132.06;;;2.94;100.00
68193;BME280;55012;47.562;18.414;2023-01-24T08:52:29;100127.75;;;3.08;100.00
68193;BME280;55012;47.562;18.414;2023-01-24T08:54:55;100139.97;;;3.19;100.00
68193;BME280;55012;47.562;18.414;2023-01-24T08:57:20;100128.81;;;3.02;100.00
68193;BME280;55012;47.562;18.414;2023-01-24T08:59:46;100129.66;;;2.92;100.00
68193;BME280;55012;47.562;18.414;2023-01-24T09:02:15;100118.50;;;2.75;100.00
68193;BME280;55012;47.562;18.414;2023-01-24T09:04:41;100111.31;;;2.65;100.00
68193;BME280;55012;47.562;18.414;2023-01-24T09:07:10;100120.63;;;2.63;100.00
68193;BME280;55012;47.562;18.414;2023-01-24T09:09:36;100116.66;;;2.65;100.00
68193;BME280;55012;47.562;18.414;2023-01-24T09:12:01;100118.00;;;2.58;100.00
68193;BME280;55012;47.562;18.414;2023-01-24T09:14:27;100108.38;;;2.51;100.00
68193;BME280;55012;47.562;18.414;2023-01-24T09:16:52;100108.38;;;2.57;100.00
68193;BME280;55012;47.562;18.414;2023-01-24T09:19:18;100091.25;;;2.63;100.00
68193;BME280;55012;47.562;18.414;2023-01-24T09:21:43;100089.91;;;2.75;100.00
68193;BME280;55012;47.562;18.414;2023-01-24T09:24:10;100091.72;;;2.85;100.00
68193;BME280;55012;47.562;18.414;2023-01-24T09:26:35;100105.88;;;2.91;100.00
68193;BME280;55012;47.562;18.414;2023-01-24T09:29:00;100114.41;;;2.93;100.00
68193;BME280;55012;47.562;18.414;2023-01-24T09:31:26;100105.28;;;3.09;100.00
68193;BME280;55012;47.562;18.414;2023-01-24T09:33:51;100116.88;;;3.38;100.00
68193;BME280;55012;47.562;18.414;2023-01-24T09:36:17;100111.25;;;3.45;100.00
68193;BME280;55012;47.562;18.414;2023-01-24T09:38:42;100111.47;;;3.54;100.00
68193;BME280;55012;47.562;18.414;2023-01-24T09:41:17;100111.16;;;3.60;100.00
68193;BME280;55012;47.562;18.414;2023-01-24T09:43:54;100111.88;;;3.71;100.00
68193;BME280;55012;47.562;18.414;2023-01-24T09:46:30;100112.38;;;3.78;100.00
68193;BME280;55012;47.562;18.414;2023-01-24T09:49:17;100104.91;;;3.75;100.00
68193;BME280;55012;47.562;18.414;2023-01-24T09:51:50;100096.91;;;3.70;100.00
68193;BME280;55012;47.562;18.414;2023-01-24T09:54:43;100093.22;;;3.66;100.00
68193;BME280;55012;47.562;18.414;2023-01-24T09:57:46;100085.25;;;3.56;100.00
68193;BME280;55012;47.562;18.414;2023-01-24T10:00:38;100072.94;;;3.55;100.00
68193;BME280;55012;47.562;18.414;2023-01-24T10:03:19;100067.38;;;3.46;100.00
68193;BME280;55012;47.562;18.414;2023-01-24T10:05:48;100046.50;;;3.48;100.00
68193;BME280;55012;47.562;18.414;2023-01-24T10:11:28;100028.69;;;3.73;100.00
68193;BME280;55012;47.562;18.414;2023-01-24T10:14:06;100036.28;;;3.55;100.00
68193;BME280;55012;47.562;18.414;2023-01-24T10:20:04;99984.13;;;3.53;100.00
68193;BME280;55012;47.562;18.414;2023-01-24T10:25:39;99955.47;;;3.58;100.00
68193;BME280;55012;47.562;18.414;2023-01-24T10:28:20;99961.53;;;3.69;100.00
68193;BME280;55012;47.562;18.414;2023-01-24T10:30:58;99964.66;;;3.81;100.00
68193;BME280;55012;47.562;18.414;2023-01-24T10:33:29;99960.28;;;3.90;100.00
68193;BME280;55012;47.562;18.414;2023-01-24T10:36:00;99957.06;;;3.88;100.00
68193;BME280;55012;47.562;18.414;2023-01-24T10:38:27;99947.41;;;3.92;100.00
68193;BME280;55012;47.562;18.414;2023-01-24T10:43:32;99917.31;;;3.77;100.00
68193;BME280;55012;47.562;18.414;2023-01-24T10:46:06;99928.53;;;3.79;100.00
68193;BME280;55012;47.562;18.414;2023-01-24T10:48:43;99945.00;;;3.62;100.00
68193;BME280;55012;47.562;18.414;2023-01-24T10:51:20;99934.41;;;3.52;100.00
68193;BME280;55012;47.562;18.414;2023-01-24T10:53:47;99934.06;;;3.58;100.00
68193;BME280;55012;47.562;18.414;2023-01-24T10:56:15;99933.75;;;3.65;100.00
68193;BME280;55012;47.562;18.414;2023-01-24T11:01:21;99944.28;;;3.80;100.00
68193;BME280;55012;47.562;18.414;2023-01-24T11:03:49;99953.16;;;3.81;100.00
68193;BME280;55012;47.562;18.414;2023-01-24T11:06:33;99974.69;;;3.65;100.00
68193;BME280;55012;47.562;18.414;2023-01-24T11:09:09;99973.81;;;3.70;100.00
68193;BME280;55012;47.562;18.414;2023-01-24T11:11:41;99992.75;;;3.79;100.00
68193;BME280;55012;47.562;18.414;2023-01-24T11:14:14;99999.38;;;3.86;100.00
68193;BME280;55012;47.562;18.414;2023-01-24T11:16:52;99984.28;;;3.95;100.00
68193;BME280;55012;47.562;18.414;2023-01-24T11:19:26;99976.09;;;3.87;100.00
68193;BME280;55012;47.562;18.414;2023-01-24T11:21:55;99960.81;;;3.87;100.00
68193;BME280;55012;47.562;18.414;2023-01-24T11:24:22;99939.38;;;3.92;100.00
68193;BME280;55012;47.562;18.414;2023-01-24T11:27:17;99921.88;;;4.00;100.00
68193;BME280;55012;47.562;18.414;2023-01-24T11:29:44;99920.69;;;4.11;100.00
68193;BME280;55012;47.562;18.414;2023-01-24T11:39:54;99889.56;;;4.39;100.00
68193;BME280;55012;47.562;18.414;2023-01-24T11:45:39;99837.28;;;4.61;100.00
68193;BME280;55012;47.562;18.414;2023-01-24T11:48:18;99844.59;;;4.74;100.00
68193;BME280;55012;47.562;18.414;2023-01-24T11:53:35;99808.19;;;4.73;100.00
68193;BME280;55012;47.562;18.414;2023-01-24T12:04:44;99711.03;;;4.48;100.00
68193;BME280;55012;47.562;18.414;2023-01-24T12:12:42;99671.66;;;4.63;100.00
68193;BME280;55012;47.562;18.414;2023-01-24T12:20:40;99652.69;;;4.59;100.00
68193;BME280;55012;47.562;18.414;2023-01-24T12:25:48;99638.13;;;4.65;100.00
68193;BME280;55012;47.562;18.414;2023-01-24T12:28:23;99648.16;;;4.73;100.00
68193;BME280;55012;47.562;18.414;2023-01-24T12:30:53;99633.88;;;4.78;100.00
68193;BME280;55012;47.562;18.414;2023-01-24T12:33:42;99627.94;;;4.81;100.00
68193;BME280;55012;47.562;18.414;2023-01-24T12:36:29;99639.03;;;4.74;100.00
68193;BME280;55012;47.562;18.414;2023-01-24T12:39:00;99628.41;;;4.83;100.00
68193;BME280;55012;47.562;18.414;2023-01-24T12:41:33;99616.78;;;4.88;100.00
68193;BME280;55012;47.562;18.414;2023-01-24T12:49:47;99618.00;;;5.09;100.00
68193;BME280;55012;47.562;18.414;2023-01-24T12:55:23;99627.03;;;5.27;100.00
68193;BME280;55012;47.562;18.414;2023-01-24T13:00:23;99613.78;;;5.44;100.00
68193;BME280;55012;47.562;18.414;2023-01-24T13:10:57;99603.09;;;5.67;100.00
68193;BME280;55012;47.562;18.414;2023-01-24T13:13:32;99601.13;;;5.58;100.00
68193;BME280;55012;47.562;18.414;2023-01-24T13:21:54;99596.09;;;5.29;100.00
68193;BME280;55012;47.562;18.414;2023-01-24T13:30:28;99588.84;;;5.44;100.00
68193;BME280;55012;47.562;18.414;2023-01-24T13:32:58;99584.34;;;5.53;100.00
68193;BME280;55012;47.562;18.414;2023-01-24T13:35:26;99575.81;;;5.51;100.00
68193;BME280;55012;47.562;18.414;2023-01-24T13:40:26;99592.63;;;5.29;100.00
68193;BME280;55012;47.562;18.414;2023-01-24T13:42:56;99598.91;;;5.24;100.00
68193;BME280;55012;47.562;18.414;2023-01-24T13:47:52;99601.03;;;5.14;100.00
68193;BME280;55012;47.562;18.414;2023-01-24T13:52:58;99598.44;;;5.22;100.00
68193;BME280;55012;47.562;18.414;2023-01-24T14:00:53;99600.00;;;5.23;100.00
68193;BME280;55012;47.562;18.414;2023-01-24T14:05:52;99601.91;;;5.23;100.00
68193;BME280;55012;47.562;18.414;2023-01-24T14:13:43;99598.94;;;4.97;100.00
68193;BME280;55012;47.562;18.414;2023-01-24T14:21:56;99612.44;;;4.78;100.00
68193;BME280;55012;47.562;18.414;2023-01-24T14:24:51;99618.69;;;4.73;100.00
68193;BME280;55012;47.562;18.414;2023-01-24T14:27:29;99621.75;;;4.67;100.00
68193;BME280;55012;47.562;18.414;2023-01-24T14:30:09;99634.25;;;4.58;100.00
68193;BME280;55012;47.562;18.414;2023-01-24T14:32:47;99636.50;;;4.50;100.00
68193;BME280;55012;47.562;18.414;2023-01-24T14:37:47;99643.16;;;4.53;100.00
68193;BME280;55012;47.562;18.414;2023-01-24T14:40:27;99640.41;;;4.58;100.00
68193;BME280;55012;47.562;18.414;2023-01-24T14:43:03;99642.78;;;4.60;100.00
68193;BME280;55012;47.562;18.414;2023-01-24T14:45:33;99644.97;;;4.58;100.00
68193;BME280;55012;47.562;18.414;2023-01-24T14:48:01;99646.06;;;4.57;100.00
68193;BME280;55012;47.562;18.414;2023-01-24T14:50:34;99656.78;;;4.57;100.00
68193;BME280;55012;47.562;18.414;2023-01-24T14:53:01;99658.44;;;4.53;100.00
68193;BME280;55012;47.562;18.414;2023-01-24T14:57:56;99667.97;;;4.59;100.00
68193;BME280;55012;47.562;18.414;2023-01-24T15:00:23;99665.59;;;4.57;100.00
68193;BME280;55012;47.562;18.414;2023-01-24T15:02:59;99658.44;;;4.53;100.00
68193;BME280;55012;47.562;18.414;2023-01-24T15:05:37;99665.78;;;4.47;100.00